createdAt,value
2018-08-23T00:00:34.699Z,22
2018-08-23T00:01:35.100Z,21.83
2018-08-23T00:02:34.700Z,21.96
2018-08-23T00:03:34.890Z,21.92
2018-08-23T00:04:34.750Z,21.89
2018-08-23T00:05:34.782Z,21.94
2018-08-23T00:06:34.243Z,21.8
2018-08-23T00:07:34.762Z,21.83
2018-08-23T00:08:34.759Z,21.8
2018-08-23T00:09:34.710Z,21.83
2018-08-23T00:10:34.728Z,21.81
2018-08-23T00:11:34.789Z,21.92
2018-08-23T00:12:34.725Z,21.92
2018-08-23T00:13:34.741Z,21.99
2018-08-23T00:14:34.822Z,21.99
2018-08-23T00:15:34.774Z,21.97
2018-08-23T00:16:34.839Z,22.18
2018-08-23T00:17:34.670Z,22.14
2018-08-23T00:18:34.733Z,21.97
2018-08-23T00:19:34.753Z,22.15
2018-08-23T00:20:34.786Z,22.08
2018-08-23T00:21:34.724Z,22.18
2018-08-23T00:22:34.728Z,22.22
2018-08-23T00:23:34.777Z,22.12
2018-08-23T00:24:34.705Z,22.15
2018-08-23T00:25:34.705Z,22.16
2018-08-23T00:26:35.290Z,22.08
2018-08-23T00:27:34.728Z,22.07
2018-08-23T00:28:34.734Z,21.99
2018-08-23T00:29:34.745Z,21.99
2018-08-23T00:30:34.752Z,21.92
2018-08-23T00:31:34.774Z,21.97
2018-08-23T00:32:34.788Z,21.91
2018-08-23T00:33:34.820Z,21.77
2018-08-23T00:34:34.783Z,21.66
2018-08-23T00:35:34.767Z,21.72
2018-08-23T00:36:34.782Z,21.85
2018-08-23T00:37:34.741Z,21.81
2018-08-23T00:38:34.740Z,21.8
2018-08-23T00:39:34.767Z,21.83
2018-08-23T00:40:34.913Z,21.66
2018-08-23T00:41:34.807Z,21.7
2018-08-23T00:42:34.801Z,21.72
2018-08-23T00:43:34.763Z,21.74
2018-08-23T00:44:34.760Z,21.72
2018-08-23T00:45:34.829Z,21.53
2018-08-23T00:46:34.838Z,21.45
2018-08-23T00:47:34.827Z,21.53
2018-08-23T00:48:34.718Z,21.45
2018-08-23T00:49:34.758Z,21.3
2018-08-23T00:50:34.780Z,21.33
2018-08-23T00:51:34.810Z,21.41
2018-08-23T00:52:34.756Z,21.48
2018-08-23T00:53:34.785Z,21.44
2018-08-23T00:54:34.789Z,21.5
2018-08-23T00:55:34.803Z,21.58
2018-08-23T00:56:34.764Z,21.56
2018-08-23T00:57:34.784Z,21.33
2018-08-23T00:58:34.819Z,21.43
2018-08-23T00:59:34.957Z,21.37
2018-08-23T01:00:34.909Z,21.38
2018-08-23T01:01:34.796Z,21.32
2018-08-23T01:02:34.809Z,21.25
2018-08-23T01:03:34.813Z,21.37
2018-08-23T01:04:34.802Z,21.35
2018-08-23T01:05:34.866Z,21.38
2018-08-23T01:06:34.835Z,21.29
2018-08-23T01:07:34.769Z,21.35
2018-08-23T01:08:34.822Z,21.32
2018-08-23T01:09:34.854Z,21.22
2018-08-23T01:10:34.835Z,21.04
2018-08-23T01:11:34.772Z,20.92
2018-08-23T01:12:34.814Z,20.98
2018-08-23T01:13:34.825Z,21.01
2018-08-23T01:14:34.798Z,21.04
2018-08-23T01:15:34.758Z,21.01
2018-08-23T01:16:34.811Z,21
2018-08-23T01:17:34.874Z,20.93
2018-08-23T01:18:34.852Z,20.89
2018-08-23T01:19:34.789Z,20.98
2018-08-23T01:20:34.908Z,21
2018-08-23T01:21:34.864Z,20.95
2018-08-23T01:22:34.782Z,21
2018-08-23T01:23:34.839Z,20.95
2018-08-23T01:24:34.843Z,20.93
2018-08-23T01:25:34.887Z,20.96
2018-08-23T01:26:34.841Z,20.9
2018-08-23T01:27:34.778Z,20.95
2018-08-23T01:28:34.808Z,20.96
2018-08-23T01:29:34.823Z,20.9
2018-08-23T01:30:34.894Z,20.92
2018-08-23T01:31:34.889Z,20.88
2018-08-23T01:32:34.879Z,20.83
2018-08-23T01:33:34.887Z,20.83
2018-08-23T01:34:34.874Z,20.77
2018-08-23T01:35:34.820Z,20.88
2018-08-23T01:36:34.955Z,20.77
2018-08-23T01:37:34.913Z,20.86
2018-08-23T01:38:34.847Z,20.78
2018-08-23T01:39:34.885Z,20.75
2018-08-23T01:40:34.881Z,20.82
2018-08-23T01:41:34.823Z,20.74
2018-08-23T01:42:34.847Z,20.71
2018-08-23T01:43:34.869Z,20.71
2018-08-23T01:44:34.857Z,20.55
2018-08-23T01:45:34.850Z,20.53
2018-08-23T01:46:34.851Z,20.64
2018-08-23T01:47:34.874Z,20.59
2018-08-23T01:48:34.816Z,20.55
2018-08-23T01:49:34.874Z,20.49
2018-08-23T01:50:34.917Z,20.4
2018-08-23T01:51:34.850Z,20.5
2018-08-23T01:52:34.893Z,20.26
2018-08-23T01:53:34.975Z,20.37
2018-08-23T01:54:34.832Z,20.24
2018-08-23T01:55:34.911Z,20.33
2018-08-23T01:56:34.982Z,20.34
2018-08-23T01:57:34.894Z,20.44
2018-08-23T01:58:34.835Z,20.27
2018-08-23T01:59:34.944Z,20.27
2018-08-23T02:00:34.932Z,20.26
2018-08-23T02:01:34.856Z,20.15
2018-08-23T02:02:34.900Z,20.08
2018-08-23T02:03:34.869Z,20.07
2018-08-23T02:04:34.934Z,20.03
2018-08-23T02:05:34.899Z,20.04
2018-08-23T02:06:34.859Z,20
2018-08-23T02:07:34.953Z,19.93
2018-08-23T02:08:34.934Z,19.96
2018-08-23T02:09:34.936Z,19.9
2018-08-23T02:10:34.885Z,19.78
2018-08-23T02:11:34.919Z,19.85
2018-08-23T02:12:34.929Z,19.82
2018-08-23T02:13:35.003Z,19.81
2018-08-23T02:14:34.935Z,19.82
2018-08-23T02:15:34.916Z,19.81
2018-08-23T02:16:34.917Z,19.74
2018-08-23T02:17:34.899Z,19.78
2018-08-23T02:18:34.903Z,19.79
2018-08-23T02:19:34.876Z,19.81
2018-08-23T02:20:34.902Z,19.74
2018-08-23T02:21:34.921Z,19.78
2018-08-23T02:22:34.919Z,19.82
2018-08-23T02:23:34.925Z,19.81
2018-08-23T02:24:34.978Z,19.75
2018-08-23T02:25:34.952Z,19.78
2018-08-23T02:26:34.983Z,19.77
2018-08-23T02:27:34.889Z,19.89
2018-08-23T02:28:34.946Z,19.82
2018-08-23T02:29:34.963Z,19.82
2018-08-23T02:30:34.978Z,19.77
2018-08-23T02:31:34.976Z,19.7
2018-08-23T02:32:34.965Z,19.71
2018-08-23T02:33:34.982Z,19.74
2018-08-23T02:34:35.027Z,19.64
2018-08-23T02:39:52.269Z,19.74
2018-08-23T02:40:04.618Z,19.81
2018-08-23T02:41:04.619Z,19.71
2018-08-23T02:42:04.583Z,19.72
2018-08-23T02:43:04.545Z,19.78
2018-08-23T02:44:04.592Z,19.72
2018-08-23T02:45:04.625Z,19.79
2018-08-23T02:46:04.639Z,19.78
2018-08-23T02:47:04.604Z,19.77
2018-08-23T02:48:04.570Z,19.77
2018-08-23T02:49:04.607Z,19.81
2018-08-23T02:50:04.579Z,19.81
2018-08-23T02:51:04.650Z,19.78
2018-08-23T02:52:04.600Z,19.78
2018-08-23T02:53:04.571Z,19.93
2018-08-23T02:54:04.546Z,19.99
2018-08-23T02:55:04.607Z,20
2018-08-23T02:56:04.578Z,19.9
2018-08-23T02:57:04.588Z,19.87
2018-08-23T02:58:04.611Z,19.75
2018-08-23T02:59:04.610Z,19.78
2018-08-23T03:00:04.618Z,19.75
2018-08-23T03:01:04.595Z,19.75
2018-08-23T03:02:04.633Z,19.62
2018-08-23T03:03:04.635Z,19.57
2018-08-23T03:04:04.613Z,19.64
2018-08-23T03:05:04.611Z,19.66
2018-08-23T03:06:04.612Z,19.72
2018-08-23T03:07:04.651Z,19.74
2018-08-23T03:08:04.659Z,19.74
2018-08-23T03:09:04.579Z,19.77
2018-08-23T03:10:04.619Z,19.7
2018-08-23T03:11:04.609Z,19.84
2018-08-23T03:12:04.662Z,19.84
2018-08-23T03:13:04.569Z,19.72
2018-08-23T03:14:04.707Z,19.79
2018-08-23T03:15:04.651Z,19.7
2018-08-23T03:16:04.633Z,19.74
2018-08-23T03:17:04.616Z,19.72
2018-08-23T03:18:04.620Z,19.7
2018-08-23T03:19:04.603Z,19.78
2018-08-23T03:20:04.579Z,19.77
2018-08-23T03:21:04.583Z,19.75
2018-08-23T03:22:04.598Z,19.81
2018-08-23T03:23:04.596Z,19.81
2018-08-23T03:24:04.597Z,19.6
2018-08-23T03:25:04.610Z,19.71
2018-08-23T03:26:04.581Z,19.6
2018-08-23T03:27:04.609Z,19.74
2018-08-23T03:28:04.625Z,19.66
2018-08-23T03:29:04.666Z,19.67
2018-08-23T03:30:04.641Z,19.78
2018-08-23T03:31:04.613Z,19.79
2018-08-23T03:32:04.620Z,19.71
2018-08-23T03:33:04.605Z,19.67
2018-08-23T03:34:04.598Z,19.56
2018-08-23T03:35:04.645Z,19.59
2018-08-23T03:36:04.626Z,19.55
2018-08-23T03:37:04.618Z,19.6
2018-08-23T03:38:04.604Z,19.37
2018-08-23T03:39:04.627Z,19.37
2018-08-23T03:40:04.616Z,19.27
2018-08-23T03:41:04.642Z,19.22
2018-08-23T03:42:04.629Z,19.26
2018-08-23T03:43:04.660Z,19.29
2018-08-23T03:44:04.622Z,19.34
2018-08-23T03:45:04.608Z,19.26
2018-08-23T03:46:04.608Z,19.29
2018-08-23T03:47:04.614Z,19.26
2018-08-23T03:48:04.667Z,19.38
2018-08-23T03:49:04.629Z,19.41
2018-08-23T03:50:04.673Z,19.41
2018-08-23T03:51:04.630Z,19.35
2018-08-23T03:52:04.654Z,19.41
2018-08-23T03:53:04.626Z,19.45
2018-08-23T03:54:04.657Z,19.55
2018-08-23T03:55:04.708Z,19.52
2018-08-23T03:56:04.648Z,19.48
2018-08-23T03:57:04.647Z,19.47
2018-08-23T03:58:04.658Z,19.45
2018-08-23T03:59:04.658Z,19.34
2018-08-23T04:00:04.660Z,19.38
2018-08-23T04:01:04.645Z,19.34
2018-08-23T04:02:04.715Z,19.41
2018-08-23T04:03:04.649Z,19.44
2018-08-23T04:04:04.684Z,19.47
2018-08-23T04:05:04.671Z,19.42
2018-08-23T04:06:04.672Z,19.53
2018-08-23T04:07:04.688Z,19.59
2018-08-23T04:08:04.643Z,19.48
2018-08-23T04:09:04.689Z,19.35
2018-08-23T04:10:04.725Z,19.34
2018-08-23T04:11:04.698Z,19.39
2018-08-23T04:12:04.676Z,19.39
2018-08-23T04:13:04.688Z,19.26
2018-08-23T04:14:04.781Z,19.24
2018-08-23T04:15:04.716Z,19.27
2018-08-23T04:16:04.691Z,19.3
2018-08-23T04:17:04.666Z,19.26
2018-08-23T04:18:04.695Z,19.29
2018-08-23T04:19:04.707Z,19.2
2018-08-23T04:20:04.683Z,19.19
2018-08-23T04:21:04.663Z,19.24
2018-08-23T04:22:04.662Z,19.32
2018-08-23T04:23:04.737Z,19.41
2018-08-23T04:24:04.696Z,19.37
2018-08-23T04:25:04.688Z,19.26
2018-08-23T04:26:04.658Z,19.22
2018-08-23T04:27:04.707Z,19.07
2018-08-23T04:28:04.712Z,19.17
2018-08-23T04:29:04.708Z,19.19
2018-08-23T04:30:04.698Z,19.17
2018-08-23T04:31:04.700Z,19.09
2018-08-23T04:32:04.723Z,19.07
2018-08-23T04:33:04.708Z,19.07
2018-08-23T04:34:04.706Z,19.17
2018-08-23T04:35:04.710Z,19.23
2018-08-23T04:36:04.685Z,19.2
2018-08-23T04:37:04.688Z,19.26
2018-08-23T04:38:04.700Z,19.34
2018-08-23T04:39:04.743Z,19.2
2018-08-23T04:40:04.753Z,19.19
2018-08-23T04:41:04.723Z,19.3
2018-08-23T04:42:04.697Z,19.26
2018-08-23T04:43:13.887Z,19.39
2018-08-23T04:44:05.490Z,19.39
2018-08-23T04:45:04.730Z,19.42
2018-08-23T04:46:04.729Z,19.37
2018-08-23T04:47:04.767Z,19.47
2018-08-23T04:48:04.741Z,19.37
2018-08-23T04:49:04.739Z,19.48
2018-08-23T04:50:04.780Z,19.44
2018-08-23T04:51:04.754Z,19.55
2018-08-23T04:52:04.733Z,19.6
2018-08-23T04:53:04.745Z,19.53
2018-08-23T04:54:04.739Z,19.62
2018-08-23T04:55:04.843Z,19.56
2018-08-23T04:56:05.041Z,19.52
2018-08-23T04:57:04.726Z,19.56
2018-08-23T04:58:04.755Z,19.55
2018-08-23T04:59:04.781Z,19.6
2018-08-23T05:00:04.775Z,19.64
2018-08-23T05:01:04.763Z,19.6
2018-08-23T05:02:04.759Z,19.71
2018-08-23T05:03:04.754Z,19.79
2018-08-23T05:04:04.937Z,19.84
2018-08-23T05:05:04.744Z,19.92
2018-08-23T05:06:04.784Z,19.84
2018-08-23T05:07:04.784Z,19.96
2018-08-23T05:08:04.788Z,19.94
2018-08-23T05:09:04.780Z,20.02
2018-08-23T05:10:04.777Z,19.97
2018-08-23T05:11:04.741Z,19.99
2018-08-23T05:12:04.782Z,20.04
2018-08-23T05:13:04.786Z,20.07
2018-08-23T05:14:04.909Z,20.11
2018-08-23T05:15:04.843Z,20.11
2018-08-23T05:16:04.787Z,20.04
2018-08-23T05:17:04.777Z,20.1
2018-08-23T05:18:04.793Z,20.1
2018-08-23T05:19:04.861Z,20.07
2018-08-23T05:20:04.804Z,20.07
2018-08-23T05:21:05.081Z,20.02
2018-08-23T05:22:04.774Z,19.87
2018-08-23T05:23:04.921Z,19.93
2018-08-23T05:24:04.827Z,19.85
2018-08-23T05:25:04.810Z,19.9
2018-08-23T05:26:04.770Z,19.99
2018-08-23T05:27:04.774Z,20.07
2018-08-23T05:28:04.830Z,20.14
2018-08-23T05:29:04.787Z,20
2018-08-23T05:30:04.803Z,20.18
2018-08-23T05:31:04.799Z,20.17
2018-08-23T05:36:22.047Z,20.24
2018-08-23T05:36:34.308Z,20.26
2018-08-23T05:37:34.263Z,20.33
2018-08-23T05:38:34.267Z,20.36
2018-08-23T05:39:34.283Z,20.3
2018-08-23T05:40:34.284Z,20.4
2018-08-23T05:41:34.286Z,20.39
2018-08-23T05:42:34.294Z,20.36
2018-08-23T05:43:34.317Z,20.36
2018-08-23T05:44:34.259Z,20.37
2018-08-23T05:45:34.289Z,20.48
2018-08-23T05:46:34.306Z,20.46
2018-08-23T05:47:34.390Z,20.44
2018-08-23T05:48:34.303Z,20.5
2018-08-23T05:49:34.277Z,20.59
2018-08-23T05:50:34.312Z,20.6
2018-08-23T05:51:34.434Z,20.63
2018-08-23T05:52:34.301Z,20.56
2018-08-23T05:53:34.305Z,20.71
2018-08-23T05:54:34.351Z,20.71
2018-08-23T05:55:34.332Z,20.68
2018-08-23T05:56:34.348Z,20.78
2018-08-23T05:57:34.333Z,20.77
2018-08-23T05:58:35.085Z,20.9
2018-08-23T05:59:34.375Z,20.95
2018-08-23T06:00:34.326Z,21.03
2018-08-23T06:01:34.354Z,21.03
2018-08-23T06:02:34.342Z,21.08
2018-08-23T06:03:34.336Z,21.25
2018-08-23T06:04:34.347Z,21.11
2018-08-23T06:05:34.352Z,21.29
2018-08-23T06:06:34.362Z,21.53
2018-08-23T06:07:34.318Z,21.8
2018-08-23T06:08:45.764Z,21.92
2018-08-23T06:09:34.366Z,22.01
2018-08-23T06:10:34.360Z,22.03
2018-08-23T06:11:34.426Z,22.04
2018-08-23T06:12:34.323Z,22.1
2018-08-23T06:13:34.486Z,22.18
2018-08-23T06:14:34.475Z,22.33
2018-08-23T06:15:34.357Z,22.31
2018-08-23T06:16:34.398Z,22.14
2018-08-23T06:17:34.351Z,22.18
2018-08-23T06:18:34.359Z,22.25
2018-08-23T06:19:34.414Z,22.28
2018-08-23T06:20:34.386Z,22.33
2018-08-23T06:21:34.381Z,22.25
2018-08-23T06:22:34.354Z,22.3
2018-08-23T06:23:34.398Z,22.33
2018-08-23T06:24:34.359Z,22.41
2018-08-23T06:25:34.375Z,22.47
2018-08-23T06:26:34.380Z,22.56
2018-08-23T06:27:34.554Z,22.49
2018-08-23T06:28:34.354Z,22.61
2018-08-23T06:29:34.360Z,22.52
2018-08-23T06:30:34.376Z,22.67
2018-08-23T06:31:34.344Z,22.98
2018-08-23T06:32:34.563Z,23.18
2018-08-23T06:33:34.703Z,23.23
2018-08-23T06:34:34.393Z,23.56
2018-08-23T06:35:34.493Z,23.81
2018-08-23T06:36:34.404Z,24.1
2018-08-23T06:37:34.453Z,24.26
2018-08-23T06:38:34.409Z,24.41
2018-08-23T06:39:34.408Z,24.43
2018-08-23T06:40:34.398Z,24.71
2018-08-23T06:41:34.408Z,24.79
2018-08-23T06:42:34.390Z,25.03
2018-08-23T06:43:34.461Z,25.29
2018-08-23T06:44:34.527Z,25.25
2018-08-23T06:45:34.398Z,25.25
2018-08-23T06:46:34.388Z,25.26
2018-08-23T06:47:34.382Z,25.58
2018-08-23T06:48:34.415Z,25.83
2018-08-23T06:49:34.428Z,25.56
2018-08-23T06:50:34.440Z,25.46
2018-08-23T06:51:34.399Z,25.44
2018-08-23T06:52:34.376Z,25.26
2018-08-23T06:53:34.448Z,25.26
2018-08-23T06:54:34.503Z,25.11
2018-08-23T06:55:34.447Z,25.01
2018-08-23T06:56:34.440Z,24.77
2018-08-23T06:57:34.484Z,24.75
2018-08-23T06:58:34.412Z,24.78
2018-08-23T06:59:34.404Z,24.63
2018-08-23T07:00:34.407Z,24.58
2018-08-23T07:01:34.467Z,24.48
2018-08-23T07:02:34.434Z,24.43
2018-08-23T07:03:34.430Z,24.46
2018-08-23T07:04:34.426Z,24.93
2018-08-23T07:05:34.630Z,25.12
2018-08-23T07:06:34.488Z,25.44
2018-08-23T07:07:34.418Z,25.76
2018-08-23T07:08:34.451Z,25.74
2018-08-23T07:09:34.481Z,25.63
2018-08-23T07:10:34.446Z,25.55
2018-08-23T07:11:34.050Z,25.52
2018-08-23T07:12:34.478Z,25.52
2018-08-23T07:13:34.592Z,25.81
2018-08-23T07:14:34.441Z,25.78
2018-08-23T07:15:34.503Z,26.27
2018-08-23T07:16:34.475Z,26.48
2018-08-23T07:17:34.602Z,26.6
2018-08-23T07:18:34.541Z,26.76
2018-08-23T07:19:34.440Z,26.42
2018-08-23T07:20:34.467Z,26.37
2018-08-23T07:21:34.556Z,26.51
2018-08-23T07:22:34.523Z,26.41
2018-08-23T07:23:34.455Z,26.39
2018-08-23T07:32:24.876Z,27.97
2018-08-23T07:33:24.839Z,28.18
2018-08-23T07:34:24.855Z,28.15
2018-08-23T07:35:24.890Z,28.43
2018-08-23T07:36:25.020Z,28.33
2018-08-23T07:37:24.864Z,28.28
2018-08-23T07:38:24.873Z,28.41
2018-08-23T07:39:24.963Z,28.34
2018-08-23T07:40:24.825Z,28.3
2018-08-23T07:42:44.196Z,28.65
2018-08-23T07:43:44.404Z,28.83
2018-08-23T07:44:44.681Z,29
2018-08-23T07:45:44.112Z,29.13
2018-08-23T07:46:44.115Z,29.13
2018-08-23T07:47:44.221Z,29.2
2018-08-23T07:53:02.297Z,29.06
2018-08-23T07:53:15.210Z,29
2018-08-23T07:54:14.908Z,29.16
2018-08-23T07:55:14.921Z,29.34
2018-08-23T07:56:15.135Z,29.49
2018-08-23T07:57:14.924Z,29.71
2018-08-23T07:58:14.917Z,29.57
2018-08-23T07:59:14.906Z,29.64
2018-08-23T08:00:15.028Z,29.71
2018-08-23T08:01:14.949Z,29.83
2018-08-23T08:02:15.185Z,30.01
2018-08-23T08:03:14.946Z,29.95
2018-08-23T08:04:14.973Z,30.03
2018-08-23T08:05:15.003Z,30.06
2018-08-23T08:06:15.266Z,30.11
2018-08-23T08:07:14.964Z,29.96
2018-08-23T08:08:14.946Z,29.9
2018-08-23T08:09:15.009Z,29.9
2018-08-23T08:10:14.980Z,29.87
2018-08-23T08:11:14.927Z,29.86
2018-08-23T08:12:15.011Z,30.08
2018-08-23T08:13:14.949Z,29.9
2018-08-23T08:14:15.044Z,29.8
2018-08-23T08:15:15.209Z,29.79
2018-08-23T08:16:14.988Z,29.71
2018-08-23T08:17:14.970Z,29.69
2018-08-23T08:18:14.975Z,29.74
2018-08-23T08:19:15.043Z,29.69
2018-08-23T08:20:14.983Z,29.35
2018-08-23T08:21:14.993Z,29.79
2018-08-23T08:22:14.987Z,29.57
2018-08-23T08:23:14.980Z,29.5
2018-08-23T08:24:14.975Z,29.34
2018-08-23T08:25:15.008Z,29.35
2018-08-23T08:26:15.017Z,29.34
2018-08-23T08:27:15.184Z,29.05
2018-08-23T08:28:14.978Z,29.03
2018-08-23T08:29:14.979Z,28.78
2018-08-23T08:30:15.044Z,28.68
2018-08-23T08:31:14.996Z,28.72
2018-08-23T08:32:14.980Z,28.67
2018-08-23T08:33:15.132Z,28.53
2018-08-23T08:34:15.015Z,28.45
2018-08-23T08:35:15.040Z,28.57
2018-08-23T08:36:14.991Z,28.37
2018-08-23T08:37:15.020Z,28.35
2018-08-23T08:38:14.993Z,28.3
2018-08-23T08:39:15.010Z,28.27
2018-08-23T08:40:15.003Z,28.38
2018-08-23T08:41:15.017Z,28.55
2018-08-23T08:42:15.044Z,28.7
2018-08-23T08:43:15.055Z,28.75
2018-08-23T08:44:15.064Z,28.67
2018-08-23T08:45:15.048Z,28.72
2018-08-23T08:46:15.052Z,28.62
2018-08-23T08:47:15.056Z,28.7
2018-08-23T08:48:15.025Z,28.65
2018-08-23T08:49:15.001Z,28.74
2018-08-23T08:50:15.039Z,28.78
2018-08-23T08:51:15.008Z,28.9
2018-08-23T08:52:15.015Z,28.92
2018-08-23T08:53:15.090Z,28.89
2018-08-23T08:54:15.035Z,28.8
2018-08-23T08:55:15.075Z,28.9
2018-08-23T08:56:15.039Z,28.89
2018-08-23T08:57:15.227Z,28.92
2018-08-23T08:58:15.023Z,28.89
2018-08-23T08:59:15.027Z,28.77
2018-08-23T09:00:15.041Z,28.77
2018-08-23T09:01:15.039Z,28.68
2018-08-23T09:02:15.054Z,28.67
2018-08-23T09:03:15.242Z,28.27
2018-08-23T09:10:42.635Z,28.45
2018-08-23T09:10:54.904Z,28.37
2018-08-23T09:11:54.862Z,28.3
2018-08-23T09:12:54.912Z,28.37
2018-08-23T09:13:54.922Z,28.18
2018-08-23T09:14:54.922Z,28.27
2018-08-23T09:15:54.940Z,28.27
2018-08-23T09:16:54.930Z,28.23
2018-08-23T09:17:54.959Z,28.25
2018-08-23T09:18:55.026Z,28.28
2018-08-23T09:19:54.918Z,28.03
2018-08-23T09:20:55.079Z,28
2018-08-23T09:21:54.908Z,28.1
2018-08-23T09:22:54.919Z,28.09
2018-08-23T09:23:54.919Z,28.01
2018-08-23T09:24:54.991Z,28.01
2018-08-23T09:25:54.937Z,28.01
2018-08-23T09:26:54.927Z,27.88
2018-08-23T09:27:54.948Z,27.93
2018-08-23T09:28:54.915Z,28.03
2018-08-23T09:29:54.943Z,28.08
2018-08-23T09:30:54.960Z,27.94
2018-08-23T09:31:55.019Z,28.01
2018-08-23T09:39:24.403Z,27.76
2018-08-23T09:39:36.702Z,27.85
2018-08-23T09:40:36.672Z,28
2018-08-23T09:41:36.735Z,27.86
2018-08-23T09:42:36.664Z,27.9
2018-08-23T09:43:36.775Z,27.88
2018-08-23T09:44:36.646Z,28
2018-08-23T09:45:36.660Z,28.12
2018-08-23T09:46:36.646Z,28.06
2018-08-23T09:47:36.631Z,28.06
2018-08-23T09:48:36.703Z,28.18
2018-08-23T09:49:36.691Z,28.22
2018-08-23T09:50:36.672Z,28.35
2018-08-23T09:51:36.635Z,28.35
2018-08-23T09:52:36.745Z,28.46
2018-08-23T09:53:36.676Z,28.55
2018-08-23T09:54:36.662Z,28.53
2018-08-23T09:55:36.691Z,28.72
2018-08-23T09:56:36.872Z,28.83
2018-08-23T09:57:36.674Z,28.78
2018-08-23T09:58:36.713Z,28.64
2018-08-23T09:59:36.687Z,28.68
2018-08-23T10:00:36.721Z,28.65
2018-08-23T10:01:36.729Z,28.82
2018-08-23T10:02:37.018Z,28.72
2018-08-23T10:03:36.677Z,28.82
2018-08-23T10:04:36.755Z,28.75
2018-08-23T10:05:36.688Z,28.62
2018-08-23T10:06:36.653Z,28.6
2018-08-23T10:07:36.677Z,28.77
2018-08-23T10:08:36.670Z,28.82
2018-08-23T10:09:36.689Z,28.75
2018-08-23T10:10:36.680Z,28.65
2018-08-23T10:11:36.951Z,28.67
2018-08-23T10:12:36.693Z,28.72
2018-08-23T10:13:36.706Z,28.59
2018-08-23T10:14:36.688Z,28.67
2018-08-23T10:15:36.682Z,28.62
2018-08-23T10:16:36.719Z,28.77
2018-08-23T10:17:36.718Z,28.56
2018-08-23T10:22:06.106Z,28.41
2018-08-23T10:23:06.049Z,28.4
2018-08-23T10:24:06.120Z,28.19
2018-08-23T10:25:06.107Z,28.28
2018-08-23T10:26:06.492Z,28.3
2018-08-23T10:27:06.185Z,28.15
2018-08-23T10:28:06.080Z,28.19
2018-08-23T10:29:06.115Z,28.19
2018-08-23T10:30:06.135Z,28.09
2018-08-23T10:31:06.090Z,27.98
2018-08-23T10:32:06.258Z,27.91
2018-08-23T10:33:06.156Z,27.94
2018-08-23T10:34:06.141Z,27.83
2018-08-23T10:35:06.118Z,27.79
2018-08-23T10:36:06.107Z,27.83
2018-08-23T10:37:06.148Z,27.75
2018-08-23T10:38:06.170Z,27.63
2018-08-23T10:39:06.129Z,27.66
2018-08-23T10:40:06.169Z,27.5
2018-08-23T10:41:06.127Z,27.45
2018-08-23T10:42:06.128Z,27.18
2018-08-23T10:43:06.121Z,27.26
2018-08-23T10:44:06.188Z,27.25
2018-08-23T10:45:06.116Z,27.16
2018-08-23T10:46:06.133Z,27.18
2018-08-23T10:47:06.130Z,27.2
2018-08-23T10:48:06.153Z,27.2
2018-08-23T10:49:06.154Z,27.18
2018-08-23T10:50:06.145Z,27.08
2018-08-23T10:51:06.283Z,27.19
2018-08-23T10:52:06.123Z,27.18
2018-08-23T10:53:06.136Z,27.2
2018-08-23T10:54:06.142Z,27.13
2018-08-23T10:55:06.348Z,26.98
2018-08-23T10:56:06.134Z,27.1
2018-08-23T10:57:06.175Z,27
2018-08-23T10:58:06.172Z,26.83
2018-08-23T10:59:06.329Z,27
2018-08-23T11:00:06.144Z,26.88
2018-08-23T11:01:06.196Z,26.73
2018-08-23T11:02:06.194Z,26.7
2018-08-23T11:03:06.176Z,26.55
2018-08-23T11:04:06.183Z,26.61
2018-08-23T11:05:06.162Z,26.55
2018-08-23T11:06:06.181Z,26.45
2018-08-23T11:07:06.159Z,26.22
2018-08-23T11:08:06.152Z,26.37
2018-08-23T11:09:06.170Z,26.39
2018-08-23T11:10:06.146Z,26.29
2018-08-23T11:11:06.221Z,26.27
2018-08-23T11:12:06.186Z,26.07
2018-08-23T11:13:06.179Z,26.13
2018-08-23T11:14:06.214Z,26.11
2018-08-23T11:15:06.237Z,25.89
2018-08-23T11:16:06.246Z,25.83
2018-08-23T11:17:06.480Z,25.96
2018-08-23T11:18:06.200Z,25.88
2018-08-23T11:19:06.299Z,25.83
2018-08-23T11:20:06.201Z,25.8
2018-08-23T11:23:13.461Z,25.83
2018-08-23T11:23:25.745Z,25.77
2018-08-23T11:24:25.723Z,25.78
2018-08-23T11:25:25.739Z,25.77
2018-08-23T11:26:25.733Z,25.88
2018-08-23T11:27:26.740Z,25.81
2018-08-23T11:28:25.716Z,25.8
2018-08-23T11:29:26.320Z,25.81
2018-08-23T11:30:25.740Z,25.78
2018-08-23T11:31:25.741Z,25.78
2018-08-23T11:32:25.754Z,25.85
2018-08-23T11:33:25.760Z,25.88
2018-08-23T11:34:25.751Z,25.88
2018-08-23T11:35:25.828Z,25.88
2018-08-23T11:36:25.728Z,25.93
2018-08-23T11:37:25.772Z,25.95
2018-08-23T11:38:25.813Z,25.91
2018-08-23T11:39:25.786Z,25.93
2018-08-23T11:40:25.841Z,25.96
2018-08-23T11:41:25.735Z,25.91
2018-08-23T11:42:25.775Z,25.93
2018-08-23T11:43:26.021Z,25.88
2018-08-23T11:44:25.836Z,25.78
2018-08-23T11:45:25.756Z,25.83
2018-08-23T11:46:25.769Z,25.77
2018-08-23T11:47:25.774Z,25.81
2018-08-23T11:48:25.809Z,25.8
2018-08-23T11:49:25.812Z,25.74
2018-08-23T11:50:25.783Z,25.76
2018-08-23T11:51:25.863Z,25.8
2018-08-23T11:52:25.805Z,25.66
2018-08-23T11:53:26.624Z,25.78
2018-08-23T11:54:25.763Z,25.78
2018-08-23T11:55:25.787Z,25.56
2018-08-23T11:56:25.770Z,25.62
2018-08-23T11:57:25.800Z,25.68
2018-08-23T11:58:25.771Z,25.77
2018-08-23T11:59:26.252Z,25.73
2018-08-23T12:00:25.785Z,25.81
2018-08-23T12:01:25.829Z,25.89
2018-08-23T12:02:25.800Z,25.92
2018-08-23T12:03:25.802Z,25.98
2018-08-23T12:04:25.792Z,25.96
2018-08-23T12:05:25.789Z,25.98
2018-08-23T12:06:25.888Z,25.93
2018-08-23T12:10:55.318Z,25.86
2018-08-23T12:11:55.281Z,25.91
2018-08-23T12:12:55.302Z,25.93
2018-08-23T12:13:55.270Z,25.96
2018-08-23T12:20:36.650Z,26.16
2018-08-23T12:21:36.605Z,26.24
2018-08-23T12:22:36.606Z,26.31
2018-08-23T12:23:36.628Z,26.29
2018-08-23T12:24:36.601Z,26.45
2018-08-23T12:25:36.709Z,26.45
2018-08-23T12:26:36.796Z,26.55
2018-08-23T12:27:36.621Z,26.64
2018-08-23T12:28:36.599Z,26.6
2018-08-23T12:29:36.619Z,26.56
2018-08-23T12:30:36.659Z,26.64
2018-08-23T12:31:36.696Z,26.73
2018-08-23T12:32:36.640Z,26.81
2018-08-23T12:33:36.613Z,26.83
2018-08-23T12:34:36.588Z,26.93
2018-08-23T12:35:36.682Z,27.03
2018-08-23T12:36:36.637Z,27
2018-08-23T12:37:36.841Z,27.22
2018-08-23T12:38:36.657Z,27.29
2018-08-23T12:39:36.636Z,27.48
2018-08-23T12:40:36.638Z,27.61
2018-08-23T12:41:36.666Z,27.6
2018-08-23T12:42:36.671Z,27.68
2018-08-23T12:43:36.789Z,27.93
2018-08-23T12:44:36.728Z,28.08
2018-08-23T12:45:36.623Z,28.22
2018-08-23T12:46:36.752Z,28.18
2018-08-23T12:47:36.745Z,28.23
2018-08-23T12:48:36.657Z,28.4
2018-08-23T12:49:36.728Z,28.52
2018-08-23T12:50:36.675Z,28.55
2018-08-23T12:51:36.625Z,28.68
2018-08-23T12:52:36.635Z,28.57
2018-08-23T12:53:36.670Z,28.71
2018-08-23T12:54:36.647Z,28.53
2018-08-23T12:55:36.685Z,28.75
2018-08-23T12:56:36.756Z,28.65
2018-08-23T12:57:36.675Z,28.77
2018-08-23T12:58:36.676Z,28.94
2018-08-23T12:59:36.676Z,29.05
2018-08-23T13:00:36.699Z,29.12
2018-08-23T13:01:36.790Z,28.96
2018-08-23T13:02:36.906Z,29.24
2018-08-23T13:03:36.800Z,29.27
2018-08-23T13:04:36.674Z,29.3
2018-08-23T13:05:36.695Z,29.34
2018-08-23T13:06:36.696Z,29.37
2018-08-23T13:07:36.738Z,29.32
2018-08-23T13:15:03.467Z,29.07
2018-08-23T13:15:15.824Z,28.86
2018-08-23T13:16:15.731Z,28.89
2018-08-23T13:17:15.842Z,28.86
2018-08-23T13:18:15.748Z,28.87
2018-08-23T13:19:15.780Z,28.94
2018-08-23T13:20:15.808Z,29.02
2018-08-23T13:21:15.763Z,29.21
2018-08-23T13:22:15.775Z,29.34
2018-08-23T13:23:15.819Z,29.42
2018-08-23T13:24:15.854Z,29.64
2018-08-23T13:25:15.770Z,29.9
2018-08-23T13:26:15.779Z,30.1
2018-08-23T13:27:15.804Z,30.06
2018-08-23T13:28:15.771Z,30.02
2018-08-23T13:29:15.815Z,30.17
2018-08-23T13:30:15.825Z,30.05
2018-08-23T13:31:15.836Z,30.02
2018-08-23T13:32:15.795Z,30.05
2018-08-23T13:33:15.802Z,30.01
2018-08-23T13:34:15.795Z,29.98
2018-08-23T13:35:15.830Z,30.08
2018-08-23T13:36:16.558Z,30.03
2018-08-23T13:37:15.871Z,30.03
2018-08-23T13:38:15.854Z,30.06
2018-08-23T13:39:15.880Z,29.96
2018-08-23T13:40:15.818Z,29.96
2018-08-23T13:41:15.834Z,29.94
2018-08-23T13:42:15.841Z,29.92
2018-08-23T13:43:15.840Z,29.89
2018-08-23T13:44:15.844Z,29.77
2018-08-23T13:45:15.878Z,29.55
2018-08-23T13:46:15.782Z,29.3
2018-08-23T13:47:15.801Z,29.71